createdAt,value
2019-02-24T00:04:03.557Z,16.60
2019-02-24T00:09:16.562Z,13.80
2019-02-24T00:14:26.037Z,12.60
2019-02-24T00:19:35.069Z,15.77
2019-02-24T00:24:47.721Z,14.03
2019-02-24T00:29:55.793Z,13.93
2019-02-24T00:35:07.541Z,16.17
2019-02-24T00:40:16.845Z,14.53
2019-02-24T00:45:28.167Z,13.98
2019-02-24T00:50:41.023Z,14.17
2019-02-24T00:56:04.583Z,14.47
2019-02-24T01:01:13.073Z,15.10
2019-02-24T01:06:26.608Z,14.38
2019-02-24T01:11:40.139Z,13.37
2019-02-24T01:16:51.814Z,13.57
2019-02-24T01:22:04.649Z,14.10
2019-02-24T01:27:16.814Z,13.30
2019-02-24T01:32:25.249Z,13.28
2019-02-24T01:37:32.640Z,13.73
2019-02-24T01:42:51.760Z,13.93
2019-02-24T01:48:05.413Z,15.33
2019-02-24T01:53:17.865Z,11.70
2019-02-24T01:58:35.240Z,12.97
2019-02-24T02:03:42.477Z,13.67
2019-02-24T02:08:57.900Z,13.80
2019-02-24T02:14:09.908Z,14.40
2019-02-24T02:19:19.485Z,13.93
2019-02-24T02:24:33.125Z,14.03
2019-02-24T02:29:43.140Z,13.17
2019-02-24T02:34:56.849Z,16.83
2019-02-24T02:40:08.369Z,13.53
2019-02-24T02:45:17.615Z,14.37
2019-02-24T02:50:30.319Z,13.03
2019-02-24T02:55:40.377Z,14.17
2019-02-24T03:00:51.851Z,15.23
2019-02-24T03:06:21.574Z,13.90
2019-02-24T03:11:30.936Z,17.87
2019-02-24T03:16:40.921Z,13.47
2019-02-24T03:21:52.567Z,15.33
2019-02-24T03:27:01.673Z,13.83
2019-02-24T03:32:14.345Z,12.80
2019-02-24T03:37:23.446Z,14.00
2019-02-24T03:42:35.288Z,16.53
2019-02-24T03:47:45.068Z,14.73
2019-02-24T03:52:53.204Z,16.23
2019-02-24T03:58:05.933Z,14.23
2019-02-24T04:03:17.608Z,16.70
2019-02-24T04:08:27.580Z,14.23
2019-02-24T04:13:34.104Z,15.50
2019-02-24T04:18:42.045Z,15.60
2019-02-24T04:23:53.054Z,16.47
2019-02-24T04:29:05.387Z,16.30
2019-02-24T04:34:16.296Z,15.35
2019-02-24T04:39:27.508Z,16.70
2019-02-24T04:44:37.283Z,13.97
2019-02-24T04:49:49.975Z,15.77
2019-02-24T04:55:03.109Z,16.07
2019-02-24T05:00:12.701Z,16.50
2019-02-24T05:05:25.691Z,17.00
2019-02-24T05:10:38.278Z,14.57
2019-02-24T05:15:50.823Z,14.93
2019-02-24T05:21:06.713Z,15.93
2019-02-24T05:26:22.128Z,14.47
2019-02-24T05:31:28.763Z,14.07
2019-02-24T05:36:38.847Z,14.10
2019-02-24T05:41:52.435Z,15.90
2019-02-24T05:47:01.350Z,15.50
2019-02-24T05:52:12.232Z,14.70
2019-02-24T05:57:26.743Z,16.00
2019-02-24T06:02:39.285Z,15.30
2019-02-24T06:07:49.331Z,14.67
2019-02-24T06:12:59.662Z,14.60
2019-02-24T06:18:08.689Z,13.33
2019-02-24T06:23:24.175Z,13.77
2019-02-24T06:28:38.536Z,14.47
2019-02-24T06:33:47.627Z,13.03
2019-02-24T06:38:58.084Z,15.67
2019-02-24T06:44:27.497Z,13.20
2019-02-24T06:49:37.587Z,13.97
2019-02-24T06:54:49.477Z,14.43
2019-02-24T07:00:13.580Z,12.83
2019-02-24T07:05:20.114Z,13.13
2019-02-24T07:10:28.493Z,15.07
2019-02-24T07:15:38.815Z,11.43
2019-02-24T07:20:46.224Z,14.07
2019-02-24T07:25:56.339Z,15.63
2019-02-24T07:31:06.482Z,14.23
2019-02-24T07:36:20.127Z,13.50
2019-02-24T07:41:29.616Z,13.30
2019-02-24T07:46:40.042Z,12.77
2019-02-24T07:51:53.803Z,13.83
2019-02-24T07:57:05.165Z,13.80
2019-02-24T08:02:20.535Z,11.80
2019-02-24T08:07:34.275Z,12.50
2019-02-24T08:12:49.001Z,12.20
2019-02-24T08:18:00.903Z,13.77
2019-02-24T08:23:13.814Z,12.43
2019-02-24T08:28:22.003Z,12.82
2019-02-24T08:33:33.732Z,12.17
2019-02-24T08:38:43.725Z,12.27
2019-02-24T08:43:54.563Z,11.30
2019-02-24T08:49:06.447Z,12.63
2019-02-24T08:54:18.338Z,10.90
2019-02-24T08:59:29.618Z,10.53
2019-02-24T09:04:42.353Z,10.37
2019-02-24T09:09:57.701Z,12.60
2019-02-24T09:15:06.820Z,10.30
2019-02-24T09:20:16.681Z,10.18
2019-02-24T09:25:24.742Z,9.03
2019-02-24T09:30:37.326Z,9.83
2019-02-24T09:35:52.520Z,9.67
2019-02-24T09:41:04.526Z,8.43
2019-02-24T09:46:17.157Z,10.47
2019-02-24T09:51:29.319Z,8.93
2019-02-24T09:56:41.033Z,9.93
2019-02-24T10:01:51.043Z,9.67
2019-02-24T10:07:03.269Z,9.07
2019-02-24T10:12:12.305Z,8.78
2019-02-24T10:17:21.212Z,8.85
2019-02-24T10:22:32.163Z,10.03
2019-02-24T10:27:44.883Z,9.28
2019-02-24T10:32:56.343Z,9.33
2019-02-24T10:38:07.596Z,10.35
2019-02-24T10:43:23.112Z,10.68
2019-02-24T10:48:33.194Z,8.60
2019-02-24T10:53:48.646Z,7.72
2019-02-24T10:59:02.268Z,7.83
2019-02-24T11:04:13.649Z,7.12
2019-02-24T11:09:21.347Z,8.08
2019-02-24T11:14:36.679Z,7.33
2019-02-24T11:19:44.823Z,8.13
2019-02-24T11:24:56.552Z,8.28
2019-02-24T11:30:10.389Z,8.05
2019-02-24T11:35:23.020Z,8.73
2019-02-24T11:40:34.766Z,7.45
2019-02-24T11:45:42.549Z,7.83
2019-02-24T11:50:57.194Z,8.03
2019-02-24T11:56:12.462Z,7.90
2019-02-24T12:01:29.570Z,7.33
2019-02-24T12:06:39.624Z,7.15
2019-02-24T12:11:52.486Z,7.75
2019-02-24T12:17:07.013Z,6.62
2019-02-24T12:22:18.873Z,7.05
2019-02-24T12:27:25.860Z,7.70
2019-02-24T12:32:36.647Z,7.15
2019-02-24T12:37:47.563Z,7.33
2019-02-24T12:43:00.265Z,7.45
2019-02-24T12:48:15.598Z,8.93
2019-02-24T12:53:27.621Z,6.50
2019-02-24T12:58:36.644Z,7.25
2019-02-24T13:03:49.266Z,6.20
2019-02-24T13:09:04.843Z,6.78
2019-02-24T13:14:15.556Z,6.90
2019-02-24T13:19:27.434Z,6.58
2019-02-24T13:24:43.788Z,7.67
2019-02-24T13:29:59.118Z,7.17
2019-02-24T13:35:09.962Z,7.47
2019-02-24T13:40:19.043Z,7.00
2019-02-24T13:45:29.059Z,7.55
2019-02-24T13:50:40.675Z,7.83
2019-02-24T13:55:47.876Z,7.53
2019-02-24T14:01:01.443Z,6.87
2019-02-24T14:06:13.955Z,7.80
2019-02-24T14:11:24.815Z,7.10
2019-02-24T14:16:35.660Z,7.28
2019-02-24T14:21:45.516Z,7.75
2019-02-24T14:26:57.518Z,7.62
2019-02-24T14:32:08.582Z,7.45
2019-02-24T14:37:19.996Z,7.50
2019-02-24T14:42:35.510Z,6.63
2019-02-24T14:47:58.359Z,7.00
2019-02-24T14:53:11.606Z,6.37
2019-02-24T14:58:23.612Z,6.45
2019-02-24T15:03:33.560Z,6.30
2019-02-24T15:08:43.524Z,6.17
2019-02-24T15:13:58.982Z,6.45
2019-02-24T15:19:11.886Z,6.33
2019-02-24T15:24:19.312Z,6.30
2019-02-24T15:29:31.856Z,5.62
2019-02-24T15:34:45.477Z,6.05
2019-02-24T15:39:55.812Z,5.72
2019-02-24T15:45:06.055Z,5.92
2019-02-24T15:50:19.908Z,6.78
2019-02-24T15:55:28.586Z,6.40
2019-02-24T16:00:43.043Z,6.62
2019-02-24T16:05:55.698Z,7.25
2019-02-24T16:11:06.500Z,5.27
2019-02-24T16:16:15.818Z,4.97
2019-02-24T16:21:27.977Z,4.40
2019-02-24T16:26:37.513Z,6.55
2019-02-24T16:31:46.891Z,7.72
2019-02-24T16:37:03.048Z,6.73
2019-02-24T16:42:21.093Z,5.40
2019-02-24T16:47:31.340Z,5.80
2019-02-24T16:52:42.601Z,6.13
2019-02-24T16:57:51.526Z,5.87
2019-02-24T17:03:07.624Z,6.40
2019-02-24T17:08:21.380Z,6.90
2019-02-24T17:13:35.653Z,6.07
2019-02-24T17:18:48.244Z,7.60
2019-02-24T17:24:00.808Z,6.63
2019-02-24T17:29:12.028Z,7.87
2019-02-24T17:34:24.111Z,8.63
2019-02-24T17:39:38.147Z,8.77
2019-02-24T17:44:52.358Z,7.93
2019-02-24T17:50:11.849Z,6.50
2019-02-24T17:55:21.031Z,7.60
2019-02-24T18:17:51.973Z,14.70
2019-02-24T18:23:05.851Z,10.63
2019-02-24T18:28:14.053Z,8.98
2019-02-24T18:33:22.056Z,17.67
2019-02-24T18:38:29.829Z,8.97
2019-02-24T18:43:38.332Z,8.73
2019-02-24T18:48:45.682Z,11.77
2019-02-24T18:53:54.598Z,9.33
2019-02-24T18:59:01.445Z,9.23
2019-02-24T19:04:14.395Z,7.87
2019-02-24T19:09:23.914Z,7.67
2019-02-24T19:14:31.503Z,8.10
2019-02-24T19:19:39.026Z,8.60
2019-02-24T19:24:49.536Z,9.53
2019-02-24T19:30:00.294Z,13.13
2019-02-24T19:35:10.815Z,11.35
2019-02-24T19:40:37.861Z,10.40
2019-02-24T19:45:46.946Z,11.27
2019-02-24T19:50:55.617Z,9.73
2019-02-24T19:56:02.447Z,10.57
2019-02-24T20:01:11.833Z,11.77
2019-02-24T20:06:20.190Z,11.55
2019-02-24T20:11:28.033Z,12.13
2019-02-24T20:16:41.668Z,13.23
2019-02-24T20:21:49.989Z,14.10
2019-02-24T20:26:57.743Z,12.30
2019-02-24T20:32:06.466Z,11.23
2019-02-24T20:37:15.775Z,12.35
2019-02-24T20:42:26.179Z,10.55
2019-02-24T20:47:37.022Z,13.07
2019-02-24T20:52:45.260Z,14.47
2019-02-24T20:57:53.515Z,13.90
2019-02-24T21:03:04.074Z,14.43
2019-02-24T21:08:15.205Z,19.23
2019-02-24T21:13:24.237Z,19.67
2019-02-24T21:18:36.357Z,23.23
2019-02-24T21:23:50.001Z,16.53
2019-02-24T21:29:06.264Z,18.33
2019-02-24T21:34:18.063Z,14.98
2019-02-24T21:39:28.148Z,13.40
2019-02-24T21:44:36.243Z,11.90
2019-02-24T21:49:47.973Z,10.93
2019-02-24T21:55:01.605Z,10.50
2019-02-24T22:00:18.864Z,10.47
2019-02-24T22:05:31.635Z,10.07
2019-02-24T22:10:45.257Z,12.13
2019-02-24T22:15:53.639Z,11.37
2019-02-24T22:21:07.195Z,11.10
2019-02-24T22:26:20.712Z,11.67
2019-02-24T22:31:34.226Z,10.67
2019-02-24T22:36:50.054Z,14.20
2019-02-24T22:42:05.358Z,12.70
2019-02-24T22:47:14.724Z,11.07
2019-02-24T22:52:23.834Z,12.00
2019-02-24T22:57:39.235Z,13.77
2019-02-24T23:02:52.773Z,11.57
2019-02-24T23:08:04.482Z,9.93
2019-02-24T23:13:11.787Z,9.97
2019-02-24T23:18:23.878Z,10.03
2019-02-24T23:32:34.755Z,9.10
2019-02-24T23:37:46.944Z,10.87
2019-02-24T23:42:55.655Z,9.70
2019-02-24T23:48:04.331Z,9.10
2019-02-24T23:53:13.022Z,8.70
2019-02-24T23:58:22.757Z,9.40
